createdAt,value
2016-05-05T00:00:55.664Z,0
2016-05-05T00:01:49.386Z,0
2016-05-05T00:02:55.717Z,0
2016-05-05T00:03:36.500Z,0
2016-05-05T00:05:33.646Z,0
2016-05-05T00:05:46.317Z,0
2016-05-05T00:07:17.620Z,0
2016-05-05T00:08:02.232Z,0
2016-05-05T00:08:49.200Z,0
2016-05-05T00:10:08.722Z,0
2016-05-05T00:10:49.378Z,0
2016-05-05T00:11:49.616Z,0
2016-05-05T00:13:02.152Z,0
2016-05-05T00:13:49.652Z,0
2016-05-05T00:15:08.798Z,0
2016-05-05T00:15:49.813Z,0
2016-05-05T00:16:49.644Z,0
2016-05-05T00:17:55.896Z,0
2016-05-05T00:18:49.494Z,0
2016-05-05T00:21:18.611Z,0
2016-05-05T00:21:52.940Z,0
2016-05-05T00:22:54.379Z,0
2016-05-05T00:24:05.729Z,0
2016-05-05T00:25:05.590Z,0
2016-05-05T00:25:52.918Z,0
2016-05-05T00:26:52.874Z,0
2016-05-05T00:27:53.237Z,0
2016-05-05T00:28:52.739Z,0
2016-05-05T00:30:05.744Z,0
2016-05-05T00:30:53.713Z,0
2016-05-05T00:31:53.217Z,0
2016-05-05T00:32:53.109Z,0
2016-05-05T00:33:53.127Z,0
2016-05-05T00:34:54.568Z,0
2016-05-05T00:35:53.023Z,0
2016-05-05T00:36:53.198Z,0
2016-05-05T00:37:53.061Z,0
2016-05-05T00:38:53.203Z,0
2016-05-05T00:39:53.066Z,0
2016-05-05T00:40:54.396Z,0
2016-05-05T00:41:53.243Z,0
2016-05-05T00:42:53.324Z,0
2016-05-05T00:43:53.952Z,0
2016-05-05T00:44:53.422Z,0
2016-05-05T00:46:00.193Z,0
2016-05-05T00:46:53.318Z,0
2016-05-05T00:47:53.385Z,0
2016-05-05T00:48:53.355Z,0
2016-05-05T00:49:53.999Z,0
2016-05-05T00:50:59.677Z,0
2016-05-05T00:51:53.411Z,0
2016-05-05T00:53:06.041Z,0
2016-05-05T00:53:53.432Z,0
2016-05-05T00:55:12.499Z,0
2016-05-05T00:56:06.205Z,0
2016-05-05T00:56:53.502Z,0
2016-05-05T00:57:53.521Z,0
2016-05-05T00:58:53.524Z,0
2016-05-05T00:59:53.995Z,0
2016-05-05T01:01:06.281Z,0
2016-05-05T01:02:06.143Z,0
2016-05-05T01:02:53.565Z,0
2016-05-05T01:03:53.630Z,0
2016-05-05T01:04:59.886Z,0
2016-05-05T01:06:06.186Z,0
2016-05-05T01:06:59.906Z,0
2016-05-05T01:08:12.847Z,0
2016-05-05T01:09:06.224Z,0
2016-05-05T01:09:53.396Z,0
2016-05-05T01:10:53.727Z,0
2016-05-05T01:11:59.982Z,0
2016-05-05T01:13:06.485Z,0
2016-05-05T01:13:53.719Z,0
2016-05-05T01:15:06.506Z,0
2016-05-05T01:15:53.975Z,0
2016-05-05T01:16:53.853Z,0
2016-05-05T01:18:06.546Z,0
2016-05-05T01:18:53.686Z,0
2016-05-05T01:19:53.798Z,0
2016-05-05T01:21:06.476Z,0
2016-05-05T01:22:06.291Z,0
2016-05-05T01:23:13.043Z,0
2016-05-05T01:23:53.887Z,0
2016-05-05T01:25:25.174Z,0
2016-05-05T01:25:53.940Z,0
2016-05-05T01:26:53.755Z,0
2016-05-05T01:27:53.773Z,0
2016-05-05T01:29:00.213Z,0
2016-05-05T01:29:53.965Z,0
2016-05-05T01:30:55.375Z,0
2016-05-05T01:32:00.284Z,0
2016-05-05T01:33:13.054Z,0
2016-05-05T01:33:54.039Z,0
2016-05-05T01:35:19.639Z,0
2016-05-05T01:35:54.045Z,0
2016-05-05T01:37:20.347Z,0
2016-05-05T01:37:54.097Z,0
2016-05-05T01:38:53.928Z,0
2016-05-05T01:40:06.855Z,0
2016-05-05T01:40:54.183Z,0
2016-05-05T01:41:54.123Z,0
2016-05-05T01:43:06.613Z,0
2016-05-05T01:43:55.566Z,0
2016-05-05T01:44:54.069Z,0
2016-05-05T01:45:57.212Z,0
2016-05-05T01:46:54.214Z,0
2016-05-05T01:47:54.201Z,0
2016-05-05T01:48:54.704Z,0
2016-05-05T01:49:54.254Z,0
2016-05-05T01:50:54.319Z,0
2016-05-05T01:52:06.751Z,0
2016-05-05T01:52:54.314Z,0
2016-05-05T01:53:54.390Z,0
2016-05-05T01:54:55.936Z,0
2016-05-05T01:55:54.512Z,0
2016-05-05T01:56:54.229Z,0
2016-05-05T01:58:07.123Z,0
2016-05-05T01:59:00.936Z,0
2016-05-05T02:00:20.159Z,0
2016-05-05T02:00:56.097Z,0
2016-05-05T02:01:54.819Z,0
2016-05-05T02:02:54.722Z,0
2016-05-05T02:03:55.419Z,0
2016-05-05T02:04:54.613Z,0
2016-05-05T02:06:07.381Z,0
2016-05-05T02:06:54.819Z,0
2016-05-05T02:07:54.669Z,0
2016-05-05T02:08:55.017Z,0
2016-05-05T02:09:55.475Z,0
2016-05-05T02:10:54.995Z,0
2016-05-05T02:11:54.890Z,0
2016-05-05T02:12:55.004Z,0
2016-05-05T02:13:56.196Z,0
2016-05-05T02:14:54.791Z,0
2016-05-05T02:15:54.828Z,0
2016-05-05T02:17:07.568Z,0
2016-05-05T02:17:55.459Z,0
2016-05-05T02:19:14.215Z,0
2016-05-05T02:19:55.027Z,0
2016-05-05T02:21:20.705Z,0
2016-05-05T02:21:55.064Z,0
2016-05-05T02:23:26.322Z,0
2016-05-05T02:24:07.856Z,0
2016-05-05T02:24:55.106Z,0
2016-05-05T02:26:14.376Z,0
2016-05-05T02:27:07.707Z,0
2016-05-05T02:27:55.207Z,0
2016-05-05T02:28:55.695Z,0
2016-05-05T02:29:55.198Z,0
2016-05-05T02:31:01.435Z,0
2016-05-05T02:32:01.453Z,0
2016-05-05T02:32:55.206Z,0
2016-05-05T02:34:01.505Z,0
2016-05-05T02:34:55.086Z,0
2016-05-05T02:35:55.245Z,0
2016-05-05T02:36:55.872Z,0
2016-05-05T02:37:55.859Z,0
2016-05-05T02:38:55.425Z,0
2016-05-05T02:39:55.584Z,0
2016-05-05T02:40:55.337Z,0
2016-05-05T02:41:55.355Z,0
2016-05-05T02:42:55.780Z,0
2016-05-05T02:43:55.360Z,0
2016-05-05T02:45:08.131Z,0
2016-05-05T02:45:55.397Z,0
2016-05-05T02:46:55.383Z,0
2016-05-05T02:47:55.261Z,0
2016-05-05T02:49:08.173Z,0
2016-05-05T02:49:55.266Z,0
2016-05-05T02:50:55.442Z,0
2016-05-05T02:51:55.507Z,0
2016-05-05T02:53:08.230Z,0
2016-05-05T02:53:55.559Z,0
2016-05-05T02:55:14.736Z,0
2016-05-05T02:55:55.549Z,0
2016-05-05T02:57:21.226Z,4
2016-05-05T02:58:01.960Z,4
2016-05-05T02:58:55.416Z,0
2016-05-05T02:59:56.997Z,0
2016-05-05T03:01:01.860Z,4
2016-05-05T03:01:55.596Z,4
2016-05-05T03:03:08.367Z,0
2016-05-05T03:03:55.617Z,4
2016-05-05T03:05:21.857Z,0
2016-05-05T03:05:55.529Z,4
2016-05-05T03:06:55.703Z,8
2016-05-05T03:07:55.722Z,4
2016-05-05T03:09:10.103Z,8
2016-05-05T03:09:57.462Z,8
2016-05-05T03:12:24.000Z,8
2016-05-05T03:13:24.159Z,8
2016-05-05T03:14:30.647Z,12
2016-05-05T03:15:30.649Z,16
2016-05-05T03:16:11.480Z,16
2016-05-05T03:18:02.905Z,20
2016-05-05T03:18:15.252Z,24
2016-05-05T03:19:46.864Z,28
2016-05-05T03:20:21.897Z,32
2016-05-05T03:22:30.668Z,36
2016-05-05T03:23:30.530Z,44
2016-05-05T03:24:36.830Z,52
2016-05-05T03:25:30.724Z,60
2016-05-05T03:26:32.007Z,64
2016-05-05T03:27:38.057Z,76
2016-05-05T03:28:30.778Z,88
2016-05-05T03:30:36.830Z,112
2016-05-05T03:31:33.942Z,124
2016-05-05T03:32:34.445Z,144
2016-05-05T03:33:33.838Z,160
2016-05-05T03:34:46.732Z,184
2016-05-05T03:35:46.751Z,200
2016-05-05T03:36:53.253Z,224
2016-05-05T03:37:53.256Z,248
2016-05-05T03:38:34.056Z,268
2016-05-05T03:40:05.401Z,308
2016-05-05T03:40:49.373Z,328
2016-05-05T03:42:02.109Z,356
2016-05-05T03:42:49.581Z,388
2016-05-05T03:43:49.897Z,416
2016-05-05T03:44:49.447Z,448
2016-05-05T03:45:55.699Z,484
2016-05-05T03:46:49.655Z,520
2016-05-05T03:48:01.892Z,568
2016-05-05T03:48:55.739Z,608
2016-05-05T03:51:02.024Z,704
2016-05-05T03:52:18.218Z,764
2016-05-05T03:53:30.798Z,820
2016-05-05T03:54:25.176Z,860
2016-05-05T03:55:31.069Z,904
2016-05-05T03:56:24.572Z,936
2016-05-05T03:57:18.263Z,996
2016-05-05T03:57:59.716Z,1028
2016-05-05T03:59:18.955Z,1092
2016-05-05T03:59:59.112Z,1120
2016-05-05T04:02:39.901Z,1248
2016-05-05T04:04:23.750Z,1336
2016-05-05T04:07:36.352Z,1492
2016-05-05T04:08:36.417Z,1540
2016-05-05T04:09:42.826Z,1596
2016-05-05T04:10:42.734Z,1644
2016-05-05T04:11:36.315Z,1688
2016-05-05T04:12:55.647Z,1748
2016-05-05T04:13:36.993Z,1784
2016-05-05T04:15:07.639Z,1856
2016-05-05T04:15:45.967Z,1888
2016-05-05T04:17:17.270Z,1960
2016-05-05T04:17:55.598Z,1992
2016-05-05T04:19:58.181Z,2092
2016-05-05T04:20:29.730Z,2116
2016-05-05T04:21:10.546Z,2144
2016-05-05T04:22:10.705Z,2192
2016-05-05T04:23:10.582Z,2240
2016-05-05T04:24:11.741Z,2284
2016-05-05T04:25:23.619Z,2336
2016-05-05T04:26:23.372Z,2380
2016-05-05T04:27:10.422Z,2416
2016-05-05T04:28:36.330Z,2484
2016-05-05T04:29:45.802Z,2520
2016-05-05T04:30:39.335Z,2580
2016-05-05T04:31:20.151Z,2608
2016-05-05T04:32:19.872Z,2656
2016-05-05T04:33:20.968Z,2704
2016-05-05T04:34:20.065Z,2748
2016-05-05T04:35:20.801Z,2788
2016-05-05T04:36:32.790Z,2844
2016-05-05T04:37:20.854Z,2876
2016-05-05T04:38:39.357Z,2936
2016-05-05T04:39:27.079Z,2968
2016-05-05T04:40:45.940Z,3008
2016-05-05T04:41:20.334Z,3048
2016-05-05T04:42:51.603Z,3112
2016-05-05T04:44:00.948Z,3144
2016-05-05T04:44:35.311Z,3188
2016-05-05T04:45:35.267Z,3224
2016-05-05T04:46:35.379Z,3268
2016-05-05T04:47:35.678Z,3304
2016-05-05T04:48:41.758Z,3344
2016-05-05T04:49:35.934Z,3380
2016-05-05T04:50:48.280Z,3428
2016-05-05T04:51:35.533Z,3460
2016-05-05T04:52:54.769Z,3516
2016-05-05T04:54:04.554Z,3544
2016-05-05T04:57:29.518Z,3684
2016-05-05T04:58:03.877Z,3712
2016-05-05T05:00:06.445Z,3872
2016-05-05T05:00:44.822Z,3948
2016-05-05T05:01:19.216Z,3996
2016-05-05T05:02:18.985Z,4068
2016-05-05T05:03:19.159Z,4224
2016-05-05T05:04:19.614Z,4496
2016-05-05T05:05:19.210Z,4768
2016-05-05T05:06:31.949Z,5060
2016-05-05T05:07:20.638Z,5284
2016-05-05T05:08:19.266Z,5652
2016-05-05T05:09:18.956Z,6112
2016-05-05T05:10:31.896Z,6664
2016-05-05T05:11:25.539Z,7612
2016-05-05T05:12:32.090Z,10152
2016-05-05T05:13:31.904Z,11960
2016-05-05T05:14:44.829Z,12532
2016-05-05T05:15:19.192Z,12584
2016-05-05T05:16:50.647Z,12748
2016-05-05T05:17:19.367Z,12800
2016-05-05T05:19:16.358Z,12940
2016-05-05T05:19:29.030Z,13016
2016-05-05T05:21:41.317Z,13276
2016-05-05T05:22:38.444Z,13444
2016-05-05T05:23:51.197Z,13564
2016-05-05T05:24:38.481Z,13624
2016-05-05T05:26:35.330Z,13908
2016-05-05T05:28:19.882Z,14368
2016-05-05T05:29:29.604Z,14464
2016-05-05T05:30:29.700Z,14624
2016-05-05T05:31:35.280Z,14688
2016-05-05T05:32:35.205Z,14816
2016-05-05T05:33:39.240Z,14912
2016-05-05T05:34:39.273Z,15168
2016-05-05T05:35:17.713Z,15456
2016-05-05T05:37:20.328Z,16032
2016-05-05T05:37:58.625Z,16224
2016-05-05T05:38:32.924Z,16448
2016-05-05T05:39:58.896Z,17408
2016-05-05T05:40:37.180Z,18080
2016-05-05T05:42:39.857Z,20416
2016-05-05T05:43:11.609Z,20352
2016-05-05T05:43:52.500Z,19712
2016-05-05T05:45:55.006Z,17600
2016-05-05T05:46:07.725Z,17568
2016-05-05T05:47:07.571Z,17248
2016-05-05T05:48:07.433Z,17216
2016-05-05T05:49:20.564Z,17120
2016-05-05T05:50:07.736Z,17120
2016-05-05T05:52:04.647Z,17152
2016-05-05T05:53:48.886Z,17408
2016-05-05T05:54:58.421Z,17504
2016-05-05T05:57:01.144Z,17760
2016-05-05T05:57:39.179Z,17952
2016-05-05T05:58:13.557Z,18272
2016-05-05T05:59:13.716Z,18656
2016-05-05T06:00:13.624Z,18272
2016-05-05T06:01:26.549Z,17664
2016-05-05T06:02:13.801Z,17696
2016-05-05T06:03:32.866Z,17952
2016-05-05T06:04:13.885Z,18112
2016-05-05T06:06:36.297Z,18752
2016-05-05T06:06:48.954Z,18944
2016-05-05T06:09:01.692Z,19104
2016-05-05T06:10:30.011Z,18304
2016-05-05T06:11:01.902Z,18240
2016-05-05T06:12:33.219Z,18176
2016-05-05T06:13:08.281Z,18176
2016-05-05T06:14:33.287Z,18080
2016-05-05T06:15:17.273Z,18144
2016-05-05T06:17:52.436Z,18144
2016-05-05T06:18:26.813Z,18112
2016-05-05T06:20:27.131Z,18016
2016-05-05T06:20:39.803Z,18080
2016-05-05T06:21:39.931Z,18272
2016-05-05T06:22:46.183Z,18272
2016-05-05T06:23:39.899Z,18240
2016-05-05T06:24:52.480Z,18272
2016-05-05T06:25:52.701Z,18144
2016-05-05T06:26:46.330Z,18336
2016-05-05T06:27:40.426Z,18144
2016-05-05T06:28:40.037Z,18304
2016-05-05T06:29:39.946Z,18144
2016-05-05T06:30:39.980Z,18432
2016-05-05T06:31:43.171Z,18368
2016-05-05T06:32:52.736Z,18464
2016-05-05T06:33:40.192Z,18624
2016-05-05T06:34:59.351Z,18944
2016-05-05T06:36:09.009Z,19040
2016-05-05T06:38:55.580Z,19136
2016-05-05T06:39:37.067Z,19552
2016-05-05T06:40:24.351Z,19936
2016-05-05T06:41:43.588Z,20352
2016-05-05T06:42:24.513Z,20256
2016-05-05T06:43:24.406Z,19968
2016-05-05T06:44:24.409Z,19744
2016-05-05T06:45:37.302Z,19680
2016-05-05T06:46:37.242Z,19584
2016-05-05T06:47:37.558Z,19232
2016-05-05T06:48:24.622Z,19200
2016-05-05T06:50:35.613Z,19072
2016-05-05T06:52:01.146Z,19008
2016-05-05T06:52:48.243Z,19136
2016-05-05T06:54:01.042Z,19200
2016-05-05T06:54:35.764Z,19168
2016-05-05T06:56:32.941Z,19424
2016-05-05T06:56:45.582Z,19232
2016-05-05T06:57:45.491Z,19200
2016-05-05T06:58:45.555Z,19584
2016-05-05T06:59:45.574Z,20032
2016-05-05T07:00:58.201Z,19744
2016-05-05T07:01:58.346Z,20288
2016-05-05T07:02:58.301Z,19968
2016-05-05T07:03:46.319Z,20064
2016-05-05T07:05:04.791Z,20512
2016-05-05T07:05:45.779Z,20960
2016-05-05T07:07:43.362Z,21856
2016-05-05T07:08:21.723Z,22816
2016-05-05T07:09:08.926Z,23840
2016-05-05T07:10:27.385Z,25760
2016-05-05T07:11:05.573Z,26464
2016-05-05T07:13:02.734Z,28320
2016-05-05T07:13:15.862Z,29568
2016-05-05T07:15:16.101Z,31264
2016-05-05T07:16:16.135Z,28640
2016-05-05T07:17:16.014Z,27488
2016-05-05T07:18:16.203Z,28768
2016-05-05T07:19:16.237Z,30144
2016-05-05T07:20:16.302Z,33088
2016-05-05T07:21:29.086Z,34688
2016-05-05T07:22:16.199Z,36320
2016-05-05T07:24:25.922Z,46816
2016-05-05T07:26:16.366Z,52704
2016-05-05T07:26:56.163Z,56064
2016-05-05T07:27:30.508Z,57504
2016-05-05T07:28:30.543Z,60032
2016-05-05T07:29:30.577Z,60640
2016-05-05T07:30:30.455Z,59008
2016-05-05T07:31:30.676Z,58848
2016-05-05T07:32:30.679Z,57056
2016-05-05T07:33:30.822Z,60992
2016-05-05T07:34:43.496Z,61184
2016-05-05T07:35:31.249Z,61536
2016-05-05T07:37:27.785Z,64064
2016-05-05T07:37:40.395Z,63072
2016-05-05T07:38:40.538Z,54368
2016-05-05T07:39:40.650Z,55040
2016-05-05T07:40:40.607Z,54464
2016-05-05T07:41:40.531Z,50368
2016-05-05T07:42:40.689Z,48704
2016-05-05T07:43:40.693Z,58016
2016-05-05T07:44:40.804Z,58784
2016-05-05T07:45:40.807Z,59872
2016-05-05T07:46:40.669Z,61856
2016-05-05T07:47:40.891Z,62496
2016-05-05T07:48:40.956Z,62080
2016-05-05T07:49:40.911Z,61984
2016-05-05T07:50:40.946Z,61632
2016-05-05T07:51:47.167Z,54880
2016-05-05T07:52:41.014Z,50656
2016-05-05T07:54:00.110Z,52256
2016-05-05T07:54:48.253Z,56992
2016-05-05T07:55:41.115Z,59456
2016-05-05T07:57:00.352Z,58976
2016-05-05T07:57:47.433Z,54816
2016-05-05T07:59:12.499Z,46944
2016-05-05T08:00:15.676Z,39552
2016-05-05T08:00:56.519Z,22336
2016-05-05T08:02:59.102Z,9132
2016-05-05T08:03:11.806Z,8952
2016-05-05T08:04:11.699Z,8244
2016-05-05T08:05:24.440Z,7996
2016-05-05T08:06:12.471Z,7876
2016-05-05T08:07:31.226Z,7584
2016-05-05T08:08:21.290Z,7404
2016-05-05T08:09:34.451Z,7240
2016-05-05T08:10:18.421Z,7068
2016-05-05T08:11:18.456Z,6908
2016-05-05T08:12:18.489Z,6792
2016-05-05T08:13:18.507Z,6736
2016-05-05T08:14:18.401Z,6680
2016-05-05T08:15:31.295Z,6668
2016-05-05T08:16:24.875Z,6644
2016-05-05T08:17:31.205Z,6616
2016-05-05T08:18:25.381Z,6592
2016-05-05T08:19:18.398Z,6556
2016-05-05T08:21:34.545Z,6436
2016-05-05T08:23:18.675Z,6400
2016-05-05T08:23:48.097Z,6376
2016-05-05T08:24:34.584Z,6336
2016-05-05T08:25:53.977Z,6248
2016-05-05T08:26:47.527Z,6232
2016-05-05T08:28:53.080Z,6184
2016-05-05T08:29:53.300Z,6144
2016-05-05T08:31:05.866Z,6096
2016-05-05T08:31:53.353Z,6076
2016-05-05T08:33:12.387Z,6056
2016-05-05T08:33:53.265Z,6064
2016-05-05T08:35:12.283Z,6080
2016-05-05T08:35:59.551Z,6092
2016-05-05T08:36:53.319Z,6112
2016-05-05T08:38:06.057Z,6132
2016-05-05T08:38:53.356Z,6156
2016-05-05T08:40:12.562Z,6216
2016-05-05T08:40:59.486Z,6252
2016-05-05T08:42:18.945Z,6284
2016-05-05T08:42:53.476Z,6300
2016-05-05T08:43:53.448Z,6292
2016-05-05T08:44:59.575Z,6236
2016-05-05T08:45:53.344Z,6176
2016-05-05T08:47:59.817Z,6036
2016-05-05T08:49:15.930Z,5996
2016-05-05T08:50:15.792Z,5984
2016-05-05T08:50:56.795Z,5944
2016-05-05T08:51:56.813Z,5912
2016-05-05T08:53:09.628Z,5848
2016-05-05T08:54:09.475Z,5808
2016-05-05T08:56:06.417Z,5796
2016-05-05T08:57:06.389Z,5764
2016-05-05T08:59:08.972Z,5732
2016-05-05T08:59:21.677Z,5728
2016-05-05T09:00:21.697Z,5712
2016-05-05T09:01:21.731Z,5724
2016-05-05T09:02:21.748Z,5712
2016-05-05T09:03:34.517Z,5696
2016-05-05T09:04:21.848Z,5684
2016-05-05T09:05:41.007Z,5656
2016-05-05T09:06:34.587Z,5624
2016-05-05T09:07:47.543Z,5556
2016-05-05T09:08:40.921Z,5508
2016-05-05T09:09:53.174Z,5472
2016-05-05T09:10:21.942Z,5476
2016-05-05T09:11:47.554Z,5492
2016-05-05T09:12:21.791Z,5520
2016-05-05T09:13:22.123Z,5524
2016-05-05T09:14:34.750Z,5524
2016-05-05T09:15:34.878Z,5512
2016-05-05T09:16:41.146Z,5496
2016-05-05T09:17:47.759Z,5464
2016-05-05T09:18:53.385Z,5412
2016-05-05T09:19:21.967Z,5404
2016-05-05T09:20:47.625Z,5384
2016-05-05T09:21:22.862Z,5380
2016-05-05T09:22:53.490Z,5372
2016-05-05T09:23:31.727Z,5360
2016-05-05T09:24:32.308Z,5344
2016-05-05T09:25:33.169Z,5336
2016-05-05T09:26:33.064Z,5332
2016-05-05T09:27:34.831Z,5324
2016-05-05T09:28:31.803Z,5320
2016-05-05T09:29:31.853Z,5300
2016-05-05T09:30:32.138Z,5280
2016-05-05T09:31:44.692Z,5264
2016-05-05T09:32:45.812Z,5268
2016-05-05T09:34:41.233Z,5276
2016-05-05T09:36:00.596Z,5280
2016-05-05T09:36:54.208Z,5276
2016-05-05T09:38:43.899Z,5260
2016-05-05T09:39:09.165Z,5256
2016-05-05T09:40:09.653Z,5252
2016-05-05T09:41:09.374Z,5244
2016-05-05T09:42:09.393Z,5256
2016-05-05T09:43:15.671Z,5260
2016-05-05T09:44:09.643Z,5256
2016-05-05T09:45:22.163Z,5244
2016-05-05T09:46:09.584Z,5228
2016-05-05T09:47:10.229Z,5208
2016-05-05T09:48:15.840Z,5204
2016-05-05T09:49:09.406Z,5204
2016-05-05T09:50:22.317Z,5192
2016-05-05T09:51:09.708Z,5188
2016-05-05T09:52:09.461Z,5180
2016-05-05T09:53:15.823Z,5176
2016-05-05T09:54:09.685Z,5176
2016-05-05T09:55:09.891Z,5168
2016-05-05T09:56:09.691Z,5160
2016-05-05T09:57:09.802Z,5164
2016-05-05T09:58:09.680Z,5168
2016-05-05T09:59:09.777Z,5172
2016-05-05T10:00:11.044Z,5176
2016-05-05T10:01:15.735Z,5184
2016-05-05T10:02:22.677Z,5200
2016-05-05T10:03:22.415Z,5220
2016-05-05T10:04:22.760Z,5224
2016-05-05T10:05:22.623Z,5224
2016-05-05T10:06:11.310Z,5216
2016-05-05T10:07:29.160Z,5196
2016-05-05T10:08:09.973Z,5180
2016-05-05T10:09:35.774Z,5128
2016-05-05T10:10:14.212Z,5092
2016-05-05T10:11:09.981Z,5068
2016-05-05T10:12:22.768Z,5004
2016-05-05T10:13:22.895Z,4884
2016-05-05T10:14:22.819Z,4836
2016-05-05T10:15:29.354Z,4904
2016-05-05T10:16:10.151Z,4916
2016-05-05T10:17:35.764Z,4896
2016-05-05T10:18:19.545Z,4904
2016-05-05T10:19:20.299Z,4900
2016-05-05T10:20:26.350Z,4888
2016-05-05T10:21:32.542Z,4872
2016-05-05T10:22:19.839Z,4868
2016-05-05T10:23:39.094Z,4856
2016-05-05T10:24:26.158Z,4852
2016-05-05T10:25:51.177Z,4844
2016-05-05T10:26:29.399Z,4836
2016-05-05T10:28:00.777Z,4832
2016-05-05T10:28:29.294Z,4828
2016-05-05T10:30:32.034Z,4816
2016-05-05T10:30:44.705Z,4812
2016-05-05T10:31:44.755Z,4808
2016-05-05T10:32:44.619Z,4800
2016-05-05T10:33:57.636Z,4788
2016-05-05T10:34:44.796Z,4788
2016-05-05T10:36:03.860Z,4784
2016-05-05T10:36:44.691Z,4776
2016-05-05T10:38:41.806Z,4768
2016-05-05T10:38:54.524Z,4768
2016-05-05T10:39:54.980Z,4764
2016-05-05T10:40:54.389Z,4760
2016-05-05T10:42:07.314Z,4752
2016-05-05T10:42:54.582Z,4752
2016-05-05T10:44:13.866Z,4752
2016-05-05T10:44:57.837Z,4748
2016-05-05T10:45:57.871Z,4748
2016-05-05T10:47:04.281Z,4752
2016-05-05T10:48:04.159Z,4752
2016-05-05T10:49:16.833Z,4752
2016-05-05T10:51:00.869Z,4748
2016-05-05T10:52:00.981Z,4740
2016-05-05T10:53:13.719Z,4740
2016-05-05T10:54:13.627Z,4736
2016-05-05T10:55:20.255Z,4740
2016-05-05T10:56:13.867Z,4744
2016-05-05T10:57:28.091Z,4736
2016-05-05T10:58:01.122Z,4732
2016-05-05T11:00:17.047Z,4720
2016-05-05T11:01:17.124Z,4716
2016-05-05T11:02:48.342Z,4696
2016-05-05T11:03:33.196Z,4696
2016-05-05T11:04:58.434Z,4700
2016-05-05T11:05:36.827Z,4704
2016-05-05T11:07:08.159Z,4692
2016-05-05T11:07:43.333Z,4692
2016-05-05T11:08:37.157Z,4684
2016-05-05T11:09:50.056Z,4672
2016-05-05T11:10:37.283Z,4672
2016-05-05T11:11:49.744Z,4664
2016-05-05T11:12:49.627Z,4660
2016-05-05T11:14:46.809Z,4652
2016-05-05T11:15:46.828Z,4652
2016-05-05T11:17:12.552Z,4644
2016-05-05T11:17:56.525Z,4636
2016-05-05T11:19:22.217Z,4624
2016-05-05T11:20:09.127Z,4612
2016-05-05T11:20:56.442Z,4604
2016-05-05T11:22:09.337Z,4592
2016-05-05T11:23:59.215Z,4572
2016-05-05T11:24:18.168Z,4568
2016-05-05T11:25:12.155Z,4568
2016-05-05T11:26:24.674Z,4556
2016-05-05T11:27:24.505Z,4552
2016-05-05T11:28:31.183Z,4548
2016-05-05T11:29:31.202Z,4548
2016-05-05T11:30:37.563Z,4540
2016-05-05T11:31:12.125Z,4536
2016-05-05T11:32:43.539Z,4536
2016-05-05T11:33:21.804Z,4532
2016-05-05T11:34:53.199Z,4528
2016-05-05T11:35:31.468Z,4528
2016-05-05T11:36:31.424Z,4524
2016-05-05T11:37:31.160Z,4520
2016-05-05T11:38:31.460Z,4508
2016-05-05T11:39:32.370Z,4504
2016-05-05T11:40:32.935Z,4500
2016-05-05T11:41:31.516Z,4496
2016-05-05T11:42:44.362Z,4492
2016-05-05T11:43:44.177Z,4492
2016-05-05T11:44:31.617Z,4488
2016-05-05T11:46:28.435Z,4496
2016-05-05T11:47:00.185Z,4496
2016-05-05T11:47:53.719Z,4496
2016-05-05T11:48:41.440Z,4496
2016-05-05T11:50:00.271Z,4500
2016-05-05T11:50:41.212Z,4500
2016-05-05T11:52:06.745Z,4484
2016-05-05T11:52:41.342Z,4480
2016-05-05T11:54:39.223Z,4492
2016-05-05T11:54:51.676Z,4504
2016-05-05T11:55:52.038Z,4516
2016-05-05T11:56:51.915Z,4520
2016-05-05T11:58:04.793Z,4528
2016-05-05T11:58:52.280Z,4536
2016-05-05T12:00:11.314Z,4548
2016-05-05T12:00:52.347Z,4548
2016-05-05T12:01:52.256Z,4548
2016-05-05T12:02:52.181Z,4548
2016-05-05T12:03:58.294Z,4532
2016-05-05T12:05:04.953Z,4544
2016-05-05T12:05:52.142Z,4532
2016-05-05T12:06:52.286Z,4544
2016-05-05T12:07:52.350Z,4552
2016-05-05T12:09:04.885Z,4568
2016-05-05T12:09:52.606Z,4568
2016-05-05T12:11:11.547Z,4576
2016-05-05T12:11:52.377Z,4580
2016-05-05T12:12:53.818Z,4580
2016-05-05T12:14:00.116Z,4564
2016-05-05T12:14:52.291Z,4568
2016-05-05T12:16:17.996Z,4564
2016-05-05T12:16:52.375Z,4564
2016-05-05T12:17:52.503Z,4560
2016-05-05T12:18:52.537Z,4564
2016-05-05T12:20:23.540Z,4560
2016-05-05T12:20:58.917Z,4564
2016-05-05T12:21:52.592Z,4564
2016-05-05T12:23:11.844Z,4564
2016-05-05T12:23:59.534Z,4560
2016-05-05T12:25:18.585Z,4544
2016-05-05T12:26:11.915Z,4540
2016-05-05T12:27:23.856Z,4532
2016-05-05T12:27:52.592Z,4532
2016-05-05T12:28:52.470Z,4524
2016-05-05T12:30:05.659Z,4520
2016-05-05T12:30:58.913Z,4512
2016-05-05T12:32:18.415Z,4516
2016-05-05T12:32:54.136Z,4512
2016-05-05T12:34:24.155Z,4516
2016-05-05T12:35:14.392Z,4516
2016-05-05T12:36:08.207Z,4520
2016-05-05T12:37:08.147Z,4520
2016-05-05T12:38:08.338Z,4536
2016-05-05T12:39:08.200Z,4544
2016-05-05T12:40:14.780Z,4552
2016-05-05T12:41:08.127Z,4556
2016-05-05T12:42:27.489Z,4556
2016-05-05T12:43:11.460Z,4544
2016-05-05T12:44:36.982Z,4540
2016-05-05T12:45:23.966Z,4536
2016-05-05T12:46:40.174Z,4536
2016-05-05T12:47:27.237Z,4524
2016-05-05T12:48:46.524Z,4540
2016-05-05T12:49:34.104Z,4548
2016-05-05T12:50:20.995Z,4552
2016-05-05T12:51:22.513Z,4552
2016-05-05T12:52:33.971Z,4552
2016-05-05T12:53:34.006Z,4564
2016-05-05T12:54:40.352Z,4592
2016-05-05T12:55:40.855Z,4600
2016-05-05T12:56:52.482Z,4604
2016-05-05T12:57:52.500Z,4608
2016-05-05T12:58:24.234Z,4604
2016-05-05T12:59:53.210Z,4592
2016-05-05T13:00:31.415Z,4592
2016-05-05T13:02:24.950Z,4600
2016-05-05T13:02:44.030Z,4596
2016-05-05T13:03:37.705Z,4596
2016-05-05T13:04:50.286Z,4616
2016-05-05T13:05:38.366Z,4624
2016-05-05T13:06:50.619Z,4628
2016-05-05T13:07:38.606Z,4632
2016-05-05T13:08:50.515Z,4632
2016-05-05T13:09:50.908Z,4624
2016-05-05T13:10:37.833Z,4624
2016-05-05T13:11:56.898Z,4616
2016-05-05T13:12:38.354Z,4612
2016-05-05T13:13:38.497Z,4600
2016-05-05T13:14:37.968Z,4580
2016-05-05T13:15:37.940Z,4616
2016-05-05T13:16:38.005Z,4628
2016-05-05T13:17:50.868Z,4628
2016-05-05T13:18:38.698Z,4620
2016-05-05T13:20:03.794Z,4620
2016-05-05T13:20:39.766Z,4616
2016-05-05T13:22:40.646Z,4600
2016-05-05T13:22:53.146Z,4600
2016-05-05T13:23:53.196Z,4600
2016-05-05T13:25:19.012Z,4588
2016-05-05T13:25:59.373Z,4584
2016-05-05T13:27:18.970Z,4568
2016-05-05T13:28:06.051Z,4556
2016-05-05T13:29:24.631Z,4552
2016-05-05T13:29:56.400Z,4548
2016-05-05T13:30:53.231Z,4540
2016-05-05T13:31:53.405Z,4528
2016-05-05T13:32:59.548Z,4532
2016-05-05T13:34:06.254Z,4516
2016-05-05T13:35:06.210Z,4504
2016-05-05T13:36:19.150Z,4488
2016-05-05T13:38:59.142Z,4464
2016-05-05T13:39:30.299Z,4460
2016-05-05T13:41:34.369Z,4452
2016-05-05T13:42:30.838Z,4468
2016-05-05T13:43:28.731Z,4468
2016-05-05T13:44:40.893Z,4484
2016-05-05T13:45:29.580Z,4492
2016-05-05T13:46:40.914Z,4496
2016-05-05T13:47:40.949Z,4508
2016-05-05T13:48:28.855Z,4516
2016-05-05T13:50:37.738Z,4520
2016-05-05T13:52:43.946Z,4512
2016-05-05T13:54:03.043Z,4504
2016-05-05T13:54:53.717Z,4488
2016-05-05T13:56:12.813Z,4480
2016-05-05T13:56:59.644Z,4472
2016-05-05T13:59:02.790Z,4440
2016-05-05T14:00:02.809Z,4444
2016-05-05T14:01:08.967Z,4444
2016-05-05T14:02:15.407Z,4440
2016-05-05T14:03:15.597Z,4440
2016-05-05T14:04:15.662Z,4440
2016-05-05T14:05:02.962Z,4444
2016-05-05T14:06:22.168Z,4456
2016-05-05T14:07:15.858Z,4464
2016-05-05T14:08:34.114Z,4468
2016-05-05T14:09:22.239Z,4468
2016-05-05T14:10:02.726Z,4472
2016-05-05T14:11:28.728Z,4468
2016-05-05T14:12:38.437Z,4464
2016-05-05T14:14:41.552Z,4456
2016-05-05T14:15:16.036Z,4448
2016-05-05T14:18:09.764Z,4440
2016-05-05T14:20:43.913Z,4436
2016-05-05T14:21:18.928Z,4432
2016-05-05T14:22:12.540Z,4432
2016-05-05T14:23:12.776Z,4432
2016-05-05T14:24:18.826Z,4436
2016-05-05T14:25:18.938Z,4436
2016-05-05T14:26:14.191Z,4428
2016-05-05T14:27:32.084Z,4412
2016-05-05T14:28:22.306Z,4416
2016-05-05T14:30:28.718Z,4416